Time;durP1;ratioP1;P1;durP2;ratioP2;P2;SDS_P1;SDS_P2;PMS_P1;PMS_P2;Temp;Humidity;BMP_temperature;BMP_pressure;BME280_temperature;BME280_humidity;BME280_pressure;Samples;Min_cycle;Max_cycle;Signal;HPM_P1;HPM_P2
2023/08/25 00:00:56;;;;;;;3.75;2.38;;;20.80;99.90;;;;;;4998124;28;20174;-29
2023/08/25 00:03:22;;;;;;;4.65;2.65;;;20.80;99.90;;;;;;4998108;28;20175;-29
2023/08/25 00:05:52;;;;;;;3.53;2.65;;;20.90;99.90;;;;;;4997449;28;20175;-29
2023/08/25 00:08:17;;;;;;;5.25;2.47;;;20.90;99.90;;;;;;4997777;28;20199;-29
2023/08/25 00:10:43;;;;;;;2.50;2.30;;;20.80;99.90;;;;;;4997625;28;20183;-29
2023/08/25 00:13:09;;;;;;;4.20;2.75;;;20.80;99.90;;;;;;4997775;28;20178;-29
2023/08/25 00:15:35;;;;;;;8.43;2.97;;;20.80;99.90;;;;;;4997597;28;20246;-29
2023/08/25 00:18:01;;;;;;;6.43;2.83;;;20.90;99.90;;;;;;5013695;28;20202;-29
2023/08/25 00:20:29;;;;;;;3.90;3.25;;;20.80;99.90;;;;;;4997515;28;20218;-29
2023/08/25 00:22:55;;;;;;;2.92;2.35;;;20.80;99.90;;;;;;5014161;28;20178;-29
2023/08/25 00:25:20;;;;;;;4.80;2.40;;;20.80;99.90;;;;;;4997440;28;20182;-29
2023/08/25 00:27:46;;;;;;;3.75;2.70;;;20.80;99.90;;;;;;4996276;28;20213;-29
2023/08/25 00:30:12;;;;;;;5.03;2.30;;;20.80;99.90;;;;;;4997779;28;20181;-29
2023/08/25 00:32:39;;;;;;;3.42;2.58;;;20.80;99.90;;;;;;5014095;28;20175;-28
2023/08/25 00:35:06;;;;;;;2.97;2.60;;;20.70;99.90;;;;;;4997317;28;20213;-29
2023/08/25 00:37:35;;;;;;;3.28;2.42;;;20.70;99.90;;;;;;4997013;28;20182;-30
2023/08/25 00:40:02;;;;;;;4.15;2.60;;;20.60;99.90;;;;;;4997712;28;20206;-29
2023/08/25 00:42:29;;;;;;;3.92;2.83;;;20.60;99.90;;;;;;4996951;28;20282;-28
2023/08/25 00:44:54;;;;;;;4.93;2.85;;;20.50;99.90;;;;;;4996796;28;20245;-28
2023/08/25 00:47:21;;;;;;;3.97;2.63;;;20.50;99.90;;;;;;4996870;28;20182;-29
2023/08/25 00:49:48;;;;;;;4.20;2.60;;;20.50;99.90;;;;;;5013598;28;20175;-29
2023/08/25 00:52:16;;;;;;;7.80;2.42;;;20.60;99.90;;;;;;5013334;28;20193;-29
2023/08/25 00:54:44;;;;;;;4.07;2.70;;;20.60;99.90;;;;;;5012747;28;20289;-29
2023/08/25 00:57:10;;;;;;;2.97;2.50;;;20.70;99.90;;;;;;5013320;28;20190;-29
2023/08/25 00:59:38;;;;;;;3.15;2.45;;;20.70;99.90;;;;;;4997241;28;20202;-28
2023/08/25 01:02:04;;;;;;;4.35;2.42;;;20.70;99.90;;;;;;4990995;28;20183;-29
2023/08/25 01:04:31;;;;;;;5.38;2.50;;;20.70;99.90;;;;;;4992666;28;20252;-29
2023/08/25 01:06:57;;;;;;;4.50;2.45;;;20.70;99.90;;;;;;4993443;28;20274;-28
2023/08/25 01:09:25;;;;;;;3.40;2.63;;;20.60;99.90;;;;;;5011195;28;20262;-28
2023/08/25 01:12:17;;;;;;;3.17;2.78;;;20.60;99.90;;;;;;5009743;28;20183;-28
2023/08/25 01:15:05;;;;;;;7.00;3.03;;;20.60;99.90;;;;;;4989706;28;20216;-29
2023/08/25 01:17:48;;;;;;;3.25;2.80;;;20.60;99.90;;;;;;5004292;28;20222;-29
2023/08/25 01:20:15;;;;;;;3.83;2.45;;;20.50;99.90;;;;;;4983290;28;20200;-29
2023/08/25 01:23:02;;;;;;;3.88;2.45;;;20.50;99.90;;;;;;4989719;28;20190;-29
2023/08/25 01:25:31;;;;;;;4.35;2.42;;;20.50;99.90;;;;;;4989902;28;20195;-30
2023/08/25 01:28:00;;;;;;;4.10;2.35;;;20.50;99.90;;;;;;4990009;28;20215;-28
2023/08/25 01:30:27;;;;;;;5.05;2.63;;;20.40;99.90;;;;;;4990013;28;20254;-29
2023/08/25 01:32:53;;;;;;;3.97;2.25;;;20.40;99.90;;;;;;4992446;28;20275;-28
2023/08/25 01:35:34;;;;;;;5.35;2.55;;;20.40;99.90;;;;;;4990142;28;20211;-29
2023/08/25 01:38:08;;;;;;;6.65;2.70;;;20.40;99.90;;;;;;4991810;28;20203;-30
2023/08/25 01:40:41;;;;;;;5.85;2.40;;;20.50;99.90;;;;;;5013473;28;20241;-29
2023/08/25 01:43:13;;;;;;;5.85;2.75;;;20.40;99.90;;;;;;5013259;28;20175;-29
2023/08/25 01:45:40;;;;;;;3.60;2.65;;;20.40;99.90;;;;;;4993843;28;20188;-28
2023/08/25 01:48:07;;;;;;;3.65;2.50;;;20.40;99.90;;;;;;5013284;28;20285;-29
2023/08/25 01:50:38;;;;;;;5.28;2.80;;;20.40;99.90;;;;;;5013568;28;20198;-28
2023/08/25 01:53:04;;;;;;;4.03;3.00;;;20.30;99.90;;;;;;4996997;28;20191;-28
2023/08/25 01:55:29;;;;;;;4.95;3.08;;;20.20;99.90;;;;;;4996843;28;20219;-29
2023/08/25 01:57:57;;;;;;;5.70;3.10;;;20.10;99.90;;;;;;4996673;28;20219;-29
2023/08/25 02:00:23;;;;;;;4.47;3.10;;;20.00;99.90;;;;;;5009280;28;20187;-29
2023/08/25 02:02:48;;;;;;;4.45;2.95;;;20.00;99.90;;;;;;5020516;28;20194;-29
2023/08/25 02:05:14;;;;;;;5.75;2.85;;;20.00;99.90;;;;;;4993500;28;20218;-29
2023/08/25 02:07:40;;;;;;;4.80;2.92;;;20.00;99.90;;;;;;5008556;28;20214;-28
2023/08/25 02:10:06;;;;;;;3.92;2.75;;;20.00;99.90;;;;;;4994982;28;20256;-28
2023/08/25 02:12:33;;;;;;;5.30;2.85;;;20.00;99.90;;;;;;4977333;28;20232;-28
2023/08/25 02:14:59;;;;;;;4.30;2.78;;;20.00;99.90;;;;;;4994619;28;20243;-29
2023/08/25 02:17:25;;;;;;;4.32;3.08;;;19.90;99.90;;;;;;4993119;28;20211;-28
2023/08/25 02:19:51;;;;;;;5.53;2.90;;;19.90;99.90;;;;;;4993638;28;20195;-29
2023/08/25 02:22:17;;;;;;;5.65;2.70;;;19.90;99.90;;;;;;4995191;28;20183;-30
2023/08/25 02:24:43;;;;;;;5.43;2.80;;;20.00;99.90;;;;;;5012205;28;20194;-29
2023/08/25 02:27:09;;;;;;;6.05;2.65;;;20.00;99.90;;;;;;4999272;28;20191;-28
2023/08/25 02:29:35;;;;;;;2.72;2.40;;;20.00;99.90;;;;;;4998204;28;20210;-28
2023/08/25 02:32:03;;;;;;;5.40;2.80;;;20.10;99.90;;;;;;4993134;28;20184;-28
2023/08/25 02:34:29;;;;;;;4.22;2.67;;;20.10;99.90;;;;;;4995460;28;20238;-29
2023/08/25 02:36:55;;;;;;;3.90;2.83;;;20.20;99.90;;;;;;4994932;28;20191;-29
2023/08/25 02:39:21;;;;;;;4.20;2.50;;;20.20;99.90;;;;;;5012221;28;20195;-29
2023/08/25 02:41:46;;;;;;;3.38;2.55;;;20.30;99.90;;;;;;4995278;28;20180;-29
2023/08/25 02:44:12;;;;;;;4.70;2.60;;;20.30;99.90;;;;;;4995766;28;20273;-30
2023/08/25 02:46:39;;;;;;;3.45;2.60;;;20.30;99.90;;;;;;4995221;28;20187;-29
2023/08/25 02:49:05;;;;;;;2.53;2.33;;;20.30;99.90;;;;;;4995355;28;20203;-30
2023/08/25 02:51:31;;;;;;;3.75;2.80;;;20.30;99.90;;;;;;4992637;28;20194;-29
2023/08/25 02:53:57;;;;;;;4.38;3.00;;;20.20;99.90;;;;;;5012141;28;20297;-29
2023/08/25 02:56:23;;;;;;;7.10;3.35;;;20.10;99.90;;;;;;5011945;28;20286;-29
2023/08/25 02:58:49;;;;;;;6.05;3.28;;;20.10;99.90;;;;;;4998926;28;20203;-29
2023/08/25 03:01:14;;;;;;;5.75;2.97;;;20.00;99.90;;;;;;4998672;28;20262;-29
2023/08/25 03:03:40;;;;;;;3.50;2.63;;;19.90;99.90;;;;;;4995931;28;20186;-29
2023/08/25 03:06:06;;;;;;;4.25;2.97;;;20.00;99.90;;;;;;4993326;28;20275;-30
2023/08/25 03:08:32;;;;;;;4.05;3.05;;;20.00;99.90;;;;;;4995284;28;20389;-29
2023/08/25 03:11:03;;;;;;;6.25;2.80;;;20.00;99.90;;;;;;5011792;28;20179;-30
2023/08/25 03:13:31;;;;;;;4.07;2.78;;;20.00;99.90;;;;;;4990234;28;20308;-29
2023/08/25 03:15:59;;;;;;;3.88;2.60;;;19.90;99.90;;;;;;5011461;28;20199;-29
2023/08/25 03:18:26;;;;;;;5.97;2.92;;;19.90;99.90;;;;;;4995321;28;20215;-29
2023/08/25 03:20:53;;;;;;;3.83;2.88;;;19.90;99.90;;;;;;4992300;28;20235;-29
2023/08/25 03:23:20;;;;;;;4.95;3.10;;;19.90;99.90;;;;;;4987714;28;20183;-29
2023/08/25 03:25:46;;;;;;;6.10;3.50;;;19.90;99.90;;;;;;5011508;28;20179;-29
2023/08/25 03:28:12;;;;;;;4.38;2.92;;;19.90;99.90;;;;;;4994851;28;20253;-29
2023/08/25 03:30:39;;;;;;;3.67;2.70;;;19.80;99.90;;;;;;5011683;28;20211;-29
2023/08/25 03:33:06;;;;;;;3.13;2.67;;;19.90;99.90;;;;;;5011013;28;20197;-30
2023/08/25 03:35:35;;;;;;;6.07;3.15;;;19.90;99.90;;;;;;4991658;28;20208;-29
2023/08/25 03:38:02;;;;;;;3.00;2.70;;;19.90;99.90;;;;;;5008521;28;20199;-29
2023/08/25 03:40:28;;;;;;;4.22;2.70;;;19.90;99.90;;;;;;5011235;28;20188;-29
2023/08/25 03:42:54;;;;;;;3.47;2.90;;;19.90;99.90;;;;;;4991910;28;20187;-29
2023/08/25 03:45:21;;;;;;;8.15;3.17;;;20.00;99.90;;;;;;4994798;28;20197;-29
2023/08/25 03:47:47;;;;;;;3.20;2.90;;;20.00;99.90;;;;;;4991330;28;20275;-29
2023/08/25 03:50:13;;;;;;;3.70;3.40;;;20.00;99.90;;;;;;4997487;28;20191;-29
2023/08/25 03:52:39;;;;;;;5.97;3.40;;;20.00;99.90;;;;;;4993963;28;20283;-29
2023/08/25 03:55:05;;;;;;;6.75;3.30;;;20.00;99.90;;;;;;4994691;28;20298;-29
2023/08/25 03:57:32;;;;;;;7.15;3.30;;;19.90;99.90;;;;;;4994543;28;20268;-29
2023/08/25 03:59:58;;;;;;;4.53;3.08;;;19.80;99.90;;;;;;4991628;28;20284;-30
2023/08/25 04:02:24;;;;;;;3.58;3.05;;;19.80;99.90;;;;;;4994255;28;20206;-29
2023/08/25 04:04:51;;;;;;;5.78;2.80;;;19.90;99.90;;;;;;4991271;28;20191;-30
2023/08/25 04:07:18;;;;;;;3.88;3.00;;;19.90;99.90;;;;;;4994833;28;20187;-30
2023/08/25 04:09:44;;;;;;;3.42;3.00;;;19.90;99.90;;;;;;4991237;28;20251;-30
2023/08/25 04:12:11;;;;;;;4.80;3.10;;;19.90;99.90;;;;;;4994420;28;20270;-30
2023/08/25 04:14:37;;;;;;;5.38;3.17;;;19.90;99.90;;;;;;4990710;28;20204;-30
2023/08/25 04:17:04;;;;;;;5.25;3.53;;;19.80;99.90;;;;;;5010521;28;20191;-30
2023/08/25 04:19:31;;;;;;;4.22;3.47;;;19.70;99.90;;;;;;5011044;28;20265;-29
2023/08/25 04:21:57;;;;;;;5.57;3.20;;;19.70;99.90;;;;;;4993139;28;20279;-29
2023/08/25 04:24:23;;;;;;;5.43;3.65;;;19.60;99.90;;;;;;4989846;28;20210;-30
2023/08/25 04:26:49;;;;;;;5.10;3.22;;;19.50;99.90;;;;;;4993421;28;20183;-29
2023/08/25 04:29:16;;;;;;;4.97;3.40;;;19.60;99.90;;;;;;4993938;28;20701;-30
2023/08/25 04:31:43;;;;;;;4.10;3.70;;;19.50;99.90;;;;;;4994179;28;20198;-29
2023/08/25 04:34:13;;;;;;;5.45;3.53;;;19.50;99.90;;;;;;5010316;28;20215;-30
2023/08/25 04:36:39;;;;;;;6.63;4.00;;;19.60;99.90;;;;;;4994055;28;20284;-29
2023/08/25 04:39:05;;;;;;;8.07;3.80;;;19.50;99.90;;;;;;4991923;28;20196;-30
2023/08/25 04:41:32;;;;;;;4.25;3.85;;;19.50;99.90;;;;;;4990660;28;20184;-29
2023/08/25 04:43:59;;;;;;;6.05;3.45;;;19.50;99.90;;;;;;5009861;28;20179;-30
2023/08/25 04:46:28;;;;;;;6.18;4.00;;;19.60;99.90;;;;;;4992797;28;20218;-29
2023/08/25 04:48:54;;;;;;;5.78;3.67;;;19.60;99.90;;;;;;4993850;28;20195;-30
2023/08/25 04:51:20;;;;;;;4.47;3.85;;;19.60;99.90;;;;;;4993479;28;20186;-30
2023/08/25 04:53:46;;;;;;;8.25;3.63;;;19.60;99.90;;;;;;4993848;28;20180;-30
2023/08/25 04:56:12;;;;;;;4.72;2.80;;;19.60;99.90;;;;;;4992956;28;20203;-30
2023/08/25 04:58:39;;;;;;;5.20;3.72;;;19.70;99.90;;;;;;4990035;28;20200;-30
2023/08/25 05:01:05;;;;;;;6.82;3.78;;;19.70;99.90;;;;;;4993751;28;20175;-30
2023/08/25 05:03:31;;;;;;;6.68;3.50;;;19.70;99.90;;;;;;4993654;28;20191;-29
2023/08/25 05:05:57;;;;;;;3.58;3.17;;;19.70;99.90;;;;;;4990252;28;20186;-30
2023/08/25 05:08:25;;;;;;;4.75;3.25;;;19.70;99.90;;;;;;4985715;28;20206;-30
2023/08/25 05:10:53;;;;;;;4.70;3.50;;;19.70;99.90;;;;;;4993803;28;20720;-30
2023/08/25 05:13:20;;;;;;;6.32;3.85;;;19.70;99.90;;;;;;4992788;28;20187;-30
2023/08/25 05:15:46;;;;;;;5.43;3.63;;;19.70;99.90;;;;;;4989362;28;20246;-30
2023/08/25 05:18:18;;;;;;;5.80;3.70;;;19.80;99.90;;;;;;5009260;28;20222;-30
2023/08/25 05:20:44;;;;;;;4.07;3.50;;;19.80;99.90;;;;;;4990280;28;20180;-29
2023/08/25 05:23:10;;;;;;;4.88;3.40;;;19.80;99.90;;;;;;5009760;28;20175;-29
2023/08/25 05:25:37;;;;;;;3.67;3.38;;;19.90;99.90;;;;;;4993275;28;20206;-29
2023/08/25 05:28:03;;;;;;;5.03;3.75;;;19.90;99.90;;;;;;4990178;28;20207;-30
2023/08/25 05:30:29;;;;;;;4.10;3.67;;;20.00;99.90;;;;;;4989908;28;20180;-30
2023/08/25 05:32:57;;;;;;;6.68;3.70;;;20.00;99.90;;;;;;5009606;28;20179;-29
2023/08/25 05:35:31;;;;;;;6.68;3.40;;;20.10;99.90;;;;;;4997419;28;20202;-29
2023/08/25 05:37:57;;;;;;;3.90;3.25;;;20.20;99.90;;;;;;4993153;28;20191;-30
2023/08/25 05:40:23;;;;;;;4.57;3.45;;;20.20;99.90;;;;;;4993032;28;20184;-29
2023/08/25 05:42:50;;;;;;;6.78;3.58;;;20.40;99.90;;;;;;4993555;28;20186;-30
2023/08/25 05:45:16;;;;;;;6.40;3.42;;;20.50;99.90;;;;;;4993198;28;20190;-30
2023/08/25 05:47:43;;;;;;;6.88;3.63;;;20.60;99.90;;;;;;4993315;28;20207;-30
2023/08/25 05:50:09;;;;;;;4.05;3.38;;;20.60;99.90;;;;;;4984326;28;20223;-30
2023/08/25 05:52:35;;;;;;;5.32;3.50;;;20.70;99.90;;;;;;4973616;28;20191;-30
2023/08/25 05:55:00;;;;;;;5.40;3.13;;;20.80;99.90;;;;;;4973746;28;20255;-30
2023/08/25 05:57:26;;;;;;;5.28;3.47;;;20.90;99.90;;;;;;4973202;28;20183;-30
2023/08/25 05:59:52;;;;;;;4.18;3.78;;;21.00;99.90;;;;;;4973733;28;20188;-30
2023/08/25 06:02:18;;;;;;;7.00;3.38;;;21.10;99.90;;;;;;4972706;28;20224;-30
2023/08/25 06:04:44;;;;;;;4.25;3.20;;;21.20;99.90;;;;;;4978968;28;20188;-30
2023/08/25 06:07:10;;;;;;;5.60;3.45;;;21.30;99.90;;;;;;4990403;28;20184;-30
2023/08/25 06:09:36;;;;;;;7.00;3.53;;;21.50;99.90;;;;;;5009493;28;20279;-29
2023/08/25 06:12:02;;;;;;;7.03;3.30;;;21.50;99.90;;;;;;4993108;28;20274;-30
2023/08/25 06:14:30;;;;;;;4.93;3.60;;;21.60;99.90;;;;;;4989866;28;20212;-30
2023/08/25 06:17:00;;;;;;;9.25;4.15;;;21.60;99.90;;;;;;4992821;28;20175;-30
2023/08/25 06:19:26;;;;;;;6.53;3.42;;;21.60;99.90;;;;;;4992723;28;20219;-29
2023/08/25 06:21:52;;;;;;;6.18;3.63;;;21.60;99.90;;;;;;4989487;28;20191;-29
2023/08/25 06:24:18;;;;;;;6.93;3.45;;;21.50;99.90;;;;;;5009540;28;20211;-30
2023/08/25 06:26:44;;;;;;;8.23;3.42;;;21.50;99.90;;;;;;4991830;28;20187;-30
2023/08/25 06:29:11;;;;;;;4.60;3.38;;;21.40;99.90;;;;;;4996381;28;20302;-30
2023/08/25 06:31:37;;;;;;;5.10;3.40;;;21.40;99.90;;;;;;4995335;28;20179;-30
2023/08/25 06:34:03;;;;;;;5.30;3.10;;;21.40;99.90;;;;;;4996578;28;20306;-30
2023/08/25 06:36:30;;;;;;;7.10;3.20;;;21.40;99.90;;;;;;4987552;28;20229;-30
2023/08/25 06:38:56;;;;;;;3.50;3.10;;;21.40;99.90;;;;;;4991789;28;20203;-29
2023/08/25 06:41:23;;;;;;;4.80;3.38;;;21.50;99.90;;;;;;4995383;28;20188;-29
2023/08/25 06:43:48;;;;;;;5.20;3.17;;;21.50;99.90;;;;;;4992912;28;20188;-30
2023/08/25 06:46:14;;;;;;;5.10;3.15;;;21.60;99.90;;;;;;5012015;28;20179;-30
2023/08/25 06:48:40;;;;;;;4.45;3.17;;;21.60;99.90;;;;;;4992638;28;20215;-30
2023/08/25 06:51:06;;;;;;;5.80;3.47;;;21.70;99.90;;;;;;5012562;28;20179;-29
2023/08/25 06:53:32;;;;;;;4.72;3.40;;;21.60;99.90;;;;;;4992464;28;20177;-29
2023/08/25 06:55:58;;;;;;;6.30;3.30;;;21.70;99.90;;;;;;5012087;28;20290;-30
2023/08/25 06:58:24;;;;;;;3.45;3.13;;;21.70;99.90;;;;;;4995605;28;20203;-30
2023/08/25 07:00:50;;;;;;;4.70;3.10;;;21.70;99.90;;;;;;4992785;28;20190;-30
2023/08/25 07:03:16;;;;;;;6.35;3.50;;;21.80;99.90;;;;;;4995742;28;20218;-30
2023/08/25 07:05:42;;;;;;;5.22;3.30;;;21.80;99.90;;;;;;4992496;28;20212;-30
2023/08/25 07:08:08;;;;;;;4.68;3.40;;;21.80;99.90;;;;;;4995338;28;20288;-30
2023/08/25 07:10:35;;;;;;;5.05;3.10;;;21.90;99.90;;;;;;4992344;28;20195;-29
2023/08/25 07:13:01;;;;;;;6.85;3.40;;;21.80;99.90;;;;;;4991624;28;20179;-30
2023/08/25 07:15:27;;;;;;;3.58;3.28;;;21.80;99.90;;;;;;4995016;28;20238;-30
2023/08/25 07:17:53;;;;;;;5.00;3.30;;;21.80;99.90;;;;;;5011677;28;20203;-29
2023/08/25 07:20:19;;;;;;;3.75;3.25;;;21.80;99.90;;;;;;4995409;28;20278;-30
2023/08/25 07:22:46;;;;;;;4.90;3.63;;;21.60;99.90;;;;;;4995643;28;20214;-30
2023/08/25 07:25:13;;;;;;;5.70;3.78;;;21.60;99.90;;;;;;4992050;28;20216;-31
2023/08/25 07:27:39;;;;;;;5.15;4.00;;;21.50;99.90;;;;;;4994548;28;20279;-30
2023/08/25 07:30:06;;;;;;;8.77;4.20;;;21.40;99.90;;;;;;5011635;28;20210;-32
2023/08/25 07:32:32;;;;;;;7.88;3.55;;;21.40;99.90;;;;;;4991726;28;20204;-31
2023/08/25 07:34:58;;;;;;;7.07;4.25;;;21.30;99.90;;;;;;5007082;28;20213;-31
2023/08/25 07:37:25;;;;;;;10.75;4.50;;;21.20;99.90;;;;;;4993784;28;20267;-31
2023/08/25 07:39:52;;;;;;;5.72;3.70;;;21.20;99.90;;;;;;4994941;28;20187;-30
2023/08/25 07:42:19;;;;;;;10.30;4.00;;;21.10;99.90;;;;;;4992483;28;20214;-30
2023/08/25 07:44:46;;;;;;;6.13;3.92;;;21.10;99.90;;;;;;4995184;28;20186;-29
2023/08/25 07:47:11;;;;;;;6.53;4.00;;;21.00;99.90;;;;;;4992418;28;20207;-29
2023/08/25 07:49:37;;;;;;;6.43;4.38;;;21.00;99.90;;;;;;4991791;28;20254;-29
2023/08/25 07:52:03;;;;;;;6.05;4.13;;;21.00;99.90;;;;;;5011287;28;20187;-30
2023/08/25 07:54:29;;;;;;;8.43;4.55;;;20.90;99.90;;;;;;4994354;28;20214;-31
2023/08/25 07:56:55;;;;;;;4.85;3.35;;;20.90;99.90;;;;;;4994011;28;20646;-30
2023/08/25 07:59:22;;;;;;;7.10;3.78;;;20.80;99.90;;;;;;4994673;28;20210;-30
2023/08/25 08:01:50;;;;;;;6.97;4.13;;;20.60;99.90;;;;;;4994714;28;20270;-29
2023/08/25 08:04:16;;;;;;;6.38;3.70;;;20.60;99.90;;;;;;5010520;28;20279;-30
2023/08/25 08:06:42;;;;;;;6.80;3.75;;;20.60;99.90;;;;;;4991289;28;20183;-30
2023/08/25 08:09:07;;;;;;;4.53;3.70;;;20.50;99.90;;;;;;5010823;28;20214;-28
2023/08/25 08:11:34;;;;;;;5.38;3.58;;;20.40;99.90;;;;;;4991220;28;20188;-30
2023/08/25 08:14:01;;;;;;;6.88;4.28;;;20.40;99.90;;;;;;4986725;28;20232;-29
2023/08/25 08:16:27;;;;;;;6.07;3.38;;;20.40;99.90;;;;;;5010549;28;20182;-29
2023/08/25 08:18:52;;;;;;;6.50;3.78;;;20.50;99.90;;;;;;4993088;28;20269;-29
2023/08/25 08:21:18;;;;;;;5.70;3.80;;;20.50;99.90;;;;;;4994439;28;20199;-29
2023/08/25 08:23:44;;;;;;;8.05;3.65;;;20.50;99.90;;;;;;4993236;28;20183;-29
2023/08/25 08:26:11;;;;;;;7.00;4.35;;;20.40;99.90;;;;;;4990940;28;20184;-29
2023/08/25 08:28:37;;;;;;;5.32;3.40;;;20.40;99.90;;;;;;4990346;28;20200;-29
2023/08/25 08:31:05;;;;;;;7.57;3.92;;;20.30;99.90;;;;;;5010436;28;20179;-29
2023/08/25 08:33:32;;;;;;;4.75;3.60;;;20.30;99.90;;;;;;4993806;28;20183;-30
2023/08/25 08:35:58;;;;;;;6.32;3.60;;;20.40;99.90;;;;;;4993994;28;20219;-29
2023/08/25 08:38:25;;;;;;;6.13;3.75;;;20.40;99.90;;;;;;4993961;28;20207;-30
2023/08/25 08:40:52;;;;;;;5.55;3.60;;;20.40;99.90;;;;;;5010477;28;20178;-29
2023/08/25 08:43:19;;;;;;;4.80;3.53;;;20.50;99.90;;;;;;4991721;28;20184;-29
2023/08/25 08:45:51;;;;;;;4.18;3.80;;;20.50;99.90;;;;;;4993703;28;20222;-30
2023/08/25 08:48:20;;;;;;;6.07;3.60;;;20.50;99.90;;;;;;4990782;28;20199;-29
2023/08/25 08:50:46;;;;;;;6.57;3.55;;;20.60;99.90;;;;;;4989553;28;20258;-29
2023/08/25 08:53:14;;;;;;;7.43;3.80;;;20.40;99.90;;;;;;5009938;28;20183;-30
2023/08/25 08:55:42;;;;;;;7.93;4.10;;;20.50;99.90;;;;;;5012135;28;20203;-30
2023/08/25 08:58:08;;;;;;;4.63;4.18;;;20.50;99.90;;;;;;4994375;28;20204;-30
2023/08/25 09:00:33;;;;;;;6.57;4.05;;;20.60;99.90;;;;;;4974283;28;20234;-29
2023/08/25 09:03:05;;;;;;;7.20;4.35;;;20.60;99.90;;;;;;4974159;28;20180;-28
2023/08/25 09:05:34;;;;;;;6.93;4.05;;;20.60;99.90;;;;;;4974036;28;20196;-30
2023/08/25 09:08:06;;;;;;;5.85;4.35;;;20.70;99.90;;;;;;4988404;28;20203;-29
2023/08/25 09:10:32;;;;;;;4.70;3.65;;;20.70;99.90;;;;;;4992328;28;20194;-29
2023/08/25 09:12:58;;;;;;;5.18;3.38;;;20.80;99.90;;;;;;4993754;28;20179;-29
2023/08/25 09:15:29;;;;;;;4.90;3.78;;;20.80;99.90;;;;;;4993266;28;20214;-30
2023/08/25 09:18:03;;;;;;;6.38;3.75;;;20.90;99.90;;;;;;4989700;28;20208;-30
2023/08/25 09:20:39;;;;;;;3.80;3.47;;;20.90;99.90;;;;;;4993605;28;20274;-29
2023/08/25 09:23:06;;;;;;;5.35;4.10;;;21.00;99.90;;;;;;4990379;28;20176;-29
2023/08/25 09:25:32;;;;;;;5.75;3.92;;;21.00;99.90;;;;;;4992643;28;20282;-30
2023/08/25 09:28:03;;;;;;;5.35;3.97;;;21.10;99.90;;;;;;4993290;28;20378;-31
2023/08/25 09:30:36;;;;;;;7.10;3.90;;;21.20;99.90;;;;;;4991908;28;20206;-30
2023/08/25 09:33:06;;;;;;;4.07;3.67;;;21.30;99.90;;;;;;4990157;28;20226;-29
2023/08/25 09:35:33;;;;;;;6.55;3.70;;;21.40;99.90;;;;;;4992353;28;20215;-29
2023/08/25 09:37:59;;;;;;;6.78;3.85;;;21.50;99.90;;;;;;4989747;28;20203;-29
2023/08/25 09:40:27;;;;;;;5.25;3.70;;;21.60;99.90;;;;;;4993276;28;20270;-30
2023/08/25 09:43:00;;;;;;;5.82;3.55;;;21.70;99.90;;;;;;4989926;28;20177;-30
2023/08/25 09:45:28;;;;;;;6.20;3.85;;;21.90;99.90;;;;;;4991347;28;20226;-29
2023/08/25 09:48:08;;;;;;;4.63;3.45;;;22.00;99.90;;;;;;4989212;28;20203;-30
2023/08/25 09:50:42;;;;;;;5.13;3.55;;;22.10;99.90;;;;;;4992943;28;20183;-29
2023/08/25 09:53:10;;;;;;;4.50;3.30;;;22.10;99.90;;;;;;4990325;28;20251;-29
2023/08/25 09:55:37;;;;;;;6.13;3.75;;;22.20;99.90;;;;;;4985037;28;20298;-31
2023/08/25 09:58:08;;;;;;;6.15;3.50;;;22.30;99.90;;;;;;4989661;28;20192;-29
2023/08/25 10:00:36;;;;;;;4.15;3.35;;;22.50;99.90;;;;;;4995555;28;20186;-30
2023/08/25 10:03:10;;;;;;;3.85;3.03;;;22.40;99.90;;;;;;4993507;28;20172;-29
2023/08/25 10:05:37;;;;;;;4.70;3.63;;;22.50;99.90;;;;;;4996819;28;20238;-32
2023/08/25 10:08:07;;;;;;;3.75;3.30;;;22.70;99.90;;;;;;4993446;28;20243;-29
2023/08/25 10:10:35;;;;;;;8.63;3.78;;;22.70;99.90;;;;;;4986625;28;20180;-30
2023/08/25 10:13:03;;;;;;;6.47;3.35;;;22.80;99.90;;;;;;4999446;28;20175;-29
2023/08/25 10:15:31;;;;;;;3.58;2.95;;;22.90;99.90;;;;;;4996352;28;20293;-30
2023/08/25 10:18:02;;;;;;;4.07;3.67;;;22.90;99.90;;;;;;4993605;28;20212;-29
2023/08/25 10:20:32;;;;;;;3.40;3.10;;;22.90;99.90;;;;;;4994724;28;20192;-30
2023/08/25 10:23:00;;;;;;;4.55;3.38;;;22.90;99.90;;;;;;4993157;28;20631;-30
2023/08/25 10:25:30;;;;;;;7.60;3.50;;;23.10;99.90;;;;;;4995764;28;20194;-30
2023/08/25 10:28:01;;;;;;;3.47;2.90;;;23.20;99.90;;;;;;4993157;28;20263;-29
2023/08/25 10:30:27;;;;;;;3.55;3.25;;;23.30;99.90;;;;;;4988319;28;20212;-29
2023/08/25 10:33:04;;;;;;;5.28;2.88;;;23.40;99.90;;;;;;5014162;28;20183;-29
2023/08/25 10:35:44;;;;;;;5.15;3.20;;;23.40;99.90;;;;;;4994664;28;20211;-29
2023/08/25 10:38:34;;;;;;;3.45;2.78;;;23.40;99.90;;;;;;5012115;28;20207;-28
2023/08/25 10:41:15;;;;;;;3.95;3.40;;;23.40;99.90;;;;;;4996301;28;20246;-28
2023/08/25 10:43:46;;;;;;;4.10;3.00;;;23.50;99.90;;;;;;4995768;28;20183;-28
2023/08/25 10:46:12;;;;;;;3.88;3.45;;;23.50;99.90;;;;;;4992763;28;20187;-29
2023/08/25 10:48:38;;;;;;;4.22;3.63;;;23.50;99.90;;;;;;5011958;28;20203;-29
2023/08/25 10:51:09;;;;;;;5.40;3.47;;;23.40;99.90;;;;;;4992466;28;20180;-29
2023/08/25 10:53:44;;;;;;;3.90;3.17;;;23.50;99.90;;;;;;4995704;28;20194;-29
2023/08/25 10:56:17;;;;;;;4.40;3.13;;;23.60;99.90;;;;;;4992463;28;20207;-29
2023/08/25 10:59:07;;;;;;;3.00;2.80;;;23.60;99.90;;;;;;5011743;28;20195;-29
2023/08/25 11:01:42;;;;;;;4.57;3.13;;;23.70;99.90;;;;;;4981318;28;20214;-29
2023/08/25 11:04:08;;;;;;;3.28;2.97;;;23.80;99.90;;;;;;4988813;28;20184;-29
2023/08/25 11:06:42;;;;;;;4.40;3.00;;;23.90;99.90;;;;;;4976131;28;20206;-29
2023/08/25 11:09:26;;;;;;;4.03;3.10;;;24.00;99.90;;;;;;4975640;28;20208;-29
2023/08/25 11:11:59;;;;;;;3.92;3.33;;;24.00;99.90;;;;;;4988679;28;20179;-29
2023/08/25 11:14:29;;;;;;;3.50;3.20;;;24.10;99.90;;;;;;4995343;28;20218;-29
2023/08/25 11:17:00;;;;;;;5.30;3.45;;;24.20;99.90;;;;;;5012947;28;20191;-29
2023/08/25 11:19:26;;;;;;;3.40;3.10;;;24.40;99.90;;;;;;4993122;28;20212;-29
2023/08/25 11:22:02;;;;;;;4.25;3.35;;;24.50;99.90;;;;;;5011927;28;20212;-29
2023/08/25 11:24:30;;;;;;;3.97;3.53;;;24.50;99.90;;;;;;4993116;28;20199;-30
2023/08/25 11:27:09;;;;;;;5.60;3.33;;;24.50;99.90;;;;;;4991808;28;20187;-28
2023/08/25 11:29:36;;;;;;;3.47;3.17;;;24.50;99.90;;;;;;4995490;28;20210;-29
2023/08/25 11:32:02;;;;;;;4.80;3.55;;;24.50;99.90;;;;;;4998790;28;20182;-29
2023/08/25 11:34:32;;;;;;;4.15;3.70;;;24.50;99.90;;;;;;4994259;28;20285;-29
2023/08/25 11:36:58;;;;;;;5.15;3.80;;;24.50;99.90;;;;;;5011451;28;20186;-29
2023/08/25 11:39:24;;;;;;;5.60;3.55;;;24.50;99.90;;;;;;5011406;28;20203;-29
2023/08/25 11:41:56;;;;;;;5.88;3.67;;;24.50;99.90;;;;;;5000514;28;20190;-29
2023/08/25 11:44:23;;;;;;;5.03;3.78;;;24.60;99.90;;;;;;5009357;28;20297;-29
2023/08/25 11:46:49;;;;;;;4.70;3.78;;;24.70;99.90;;;;;;4991631;28;20191;-29
2023/08/25 11:49:16;;;;;;;5.88;3.83;;;24.70;99.90;;;;;;4994918;28;20207;-30
2023/08/25 11:51:43;;;;;;;4.00;3.70;;;24.80;99.90;;;;;;4994808;28;20187;-30
2023/08/25 11:54:10;;;;;;;6.28;3.88;;;25.00;99.90;;;;;;5010939;28;20218;-29
2023/08/25 11:56:36;;;;;;;5.18;4.13;;;25.00;99.90;;;;;;4992951;28;20184;-29
2023/08/25 11:59:02;;;;;;;5.35;4.15;;;25.20;99.90;;;;;;5011221;28;20716;-29
2023/08/25 12:01:35;;;;;;;4.43;4.03;;;25.30;99.90;;;;;;4996113;28;20187;-30
2023/08/25 12:04:20;;;;;;;6.18;3.97;;;25.40;99.90;;;;;;4975282;28;20643;-29
2023/08/25 12:06:46;;;;;;;4.20;3.80;;;25.40;99.90;;;;;;4992490;28;20184;-29
2023/08/25 12:09:12;;;;;;;4.80;4.30;;;25.40;99.90;;;;;;5005668;28;20229;-29
2023/08/25 12:11:38;;;;;;;5.03;4.22;;;25.50;99.90;;;;;;4994465;28;20673;-30
2023/08/25 12:14:03;;;;;;;5.05;4.18;;;25.40;99.90;;;;;;4991188;28;20176;-29
2023/08/25 12:16:29;;;;;;;7.25;4.32;;;25.40;99.90;;;;;;4994281;28;20179;-29
2023/08/25 12:18:55;;;;;;;4.45;3.88;;;25.40;99.90;;;;;;5009357;28;20222;-29
2023/08/25 12:21:21;;;;;;;5.28;4.10;;;25.20;99.90;;;;;;4991008;28;20199;-29
2023/08/25 12:23:47;;;;;;;6.88;4.00;;;25.20;99.90;;;;;;4993804;28;20205;-30
2023/08/25 12:26:13;;;;;;;6.53;4.20;;;25.20;99.90;;;;;;4987428;28;20191;-29
2023/08/25 12:28:43;;;;;;;4.65;4.18;;;25.20;99.90;;;;;;4991691;28;20212;-30
2023/08/25 12:31:09;;;;;;;4.70;4.28;;;25.30;99.90;;;;;;5013640;28;20182;-30
2023/08/25 12:33:35;;;;;;;4.97;4.10;;;25.40;99.90;;;;;;4991902;28;20196;-30
2023/08/25 12:36:01;;;;;;;6.00;4.03;;;25.40;99.90;;;;;;4974186;28;20203;-29
2023/08/25 12:38:27;;;;;;;5.50;4.68;;;25.50;99.90;;;;;;4974391;28;20200;-29
2023/08/25 12:40:53;;;;;;;6.18;4.15;;;25.50;99.90;;;;;;4990206;28;20227;-29
2023/08/25 12:43:19;;;;;;;4.70;4.30;;;25.60;99.90;;;;;;4991351;28;20188;-29
2023/08/25 12:45:46;;;;;;;5.68;3.70;;;25.70;99.90;;;;;;4991671;28;20650;-30
2023/08/25 12:48:12;;;;;;;5.10;3.67;;;25.80;99.90;;;;;;4974347;28;20211;-30
2023/08/25 12:50:37;;;;;;;5.50;3.75;;;25.90;99.90;;;;;;4990508;28;20188;-30